createdAt,value
2018-11-01T00:00:38.345Z,1000.74
2018-11-01T00:01:38.363Z,1000.75
2018-11-01T00:02:38.449Z,1000.79
2018-11-01T00:03:38.399Z,1000.82
2018-11-01T00:04:38.419Z,1000.85
2018-11-01T00:05:38.424Z,1000.91
2018-11-01T00:06:38.446Z,1000.91
2018-11-01T00:07:38.462Z,1000.89
2018-11-01T00:08:38.488Z,1000.92
2018-11-01T00:09:38.498Z,1000.93
2018-11-01T00:10:38.510Z,1000.92
2018-11-01T00:11:38.533Z,1000.95
2018-11-01T00:12:38.548Z,1000.98
2018-11-01T00:13:38.560Z,1001.03
2018-11-01T00:14:38.577Z,1001.02
2018-11-01T00:15:38.605Z,1001.03
2018-11-01T00:16:38.618Z,1001.02
2018-11-01T00:17:38.638Z,1001.05
2018-11-01T00:18:38.648Z,1001.06
2018-11-01T00:19:38.670Z,1001.07
2018-11-01T00:20:38.682Z,1001.09
2018-11-01T00:21:38.720Z,1001.09
2018-11-01T00:22:38.707Z,1001.08
2018-11-01T00:23:38.727Z,1001.06
2018-11-01T00:24:38.750Z,1001.08
2018-11-01T00:25:38.762Z,1001.09
2018-11-01T00:26:38.775Z,1001.11
2018-11-01T00:27:38.797Z,1001.10
2018-11-01T00:28:38.808Z,1001.14
2018-11-01T00:29:38.837Z,1001.11
2018-11-01T00:30:38.847Z,1001.12
2018-11-01T00:31:38.861Z,1001.12
2018-11-01T00:32:38.882Z,1001.11
2018-11-01T00:33:38.895Z,1001.12
2018-11-01T00:34:38.903Z,1001.13
2018-11-01T00:35:38.926Z,1001.14
2018-11-01T00:36:38.941Z,1001.11
2018-11-01T00:37:38.958Z,1001.19
2018-11-01T00:38:38.987Z,1001.21
2018-11-01T00:39:38.999Z,1001.21
2018-11-01T00:40:39.013Z,1001.22
2018-11-01T00:41:39.024Z,1001.22
2018-11-01T00:42:39.093Z,1001.26
2018-11-01T00:43:39.055Z,1001.26
2018-11-01T00:44:39.082Z,1001.34
2018-11-01T00:45:39.093Z,1001.28
2018-11-01T00:46:39.113Z,1001.34
2018-11-01T00:47:39.124Z,1001.39
2018-11-01T00:48:39.135Z,1001.40
2018-11-01T00:49:39.155Z,1001.46
2018-11-01T00:50:39.177Z,1001.51
2018-11-01T00:51:39.193Z,1001.57
2018-11-01T00:52:39.207Z,1001.51
2018-11-01T00:53:39.225Z,1001.49
2018-11-01T00:54:39.239Z,1001.44
2018-11-01T00:55:39.262Z,1001.45
2018-11-01T00:56:39.272Z,1001.44
2018-11-01T00:57:39.291Z,1001.45
2018-11-01T00:58:39.311Z,1001.49
2018-11-01T00:59:39.328Z,1001.52
2018-11-01T01:00:39.344Z,1001.54
2018-11-01T01:01:39.364Z,1001.55
2018-11-01T01:02:39.380Z,1001.57
2018-11-01T01:03:39.396Z,1001.56
2018-11-01T01:04:39.412Z,1001.63
2018-11-01T01:05:39.419Z,1001.66
2018-11-01T01:06:39.447Z,1001.61
2018-11-01T01:07:39.457Z,1001.59
2018-11-01T01:08:39.476Z,1001.54
2018-11-01T01:09:39.486Z,1001.54
2018-11-01T01:10:39.505Z,1001.57
2018-11-01T01:11:39.562Z,1001.59
2018-11-01T01:12:39.539Z,1001.59
2018-11-01T01:13:39.557Z,1001.56
2018-11-01T01:14:39.570Z,1001.53
2018-11-01T01:15:39.592Z,1001.56
2018-11-01T01:16:39.610Z,1001.51
2018-11-01T01:17:39.637Z,1001.53
2018-11-01T01:18:39.652Z,1001.59
2018-11-01T01:19:39.657Z,1001.62
2018-11-01T01:20:39.669Z,1001.60
2018-11-01T01:21:39.691Z,1001.56
2018-11-01T01:22:39.716Z,1001.51
2018-11-01T01:23:39.800Z,1001.47
2018-11-01T01:24:39.743Z,1001.44
2018-11-01T01:25:39.758Z,1001.43
2018-11-01T01:26:39.776Z,1001.43
2018-11-01T01:27:39.845Z,1001.44
2018-11-01T01:28:39.816Z,1001.48
2018-11-01T01:29:39.888Z,1001.48
2018-11-01T01:30:39.847Z,1001.50
2018-11-01T01:31:39.863Z,1001.50
2018-11-01T01:32:39.876Z,1001.43
2018-11-01T01:33:39.899Z,1001.46
2018-11-01T01:34:39.975Z,1001.47
2018-11-01T01:35:40.003Z,1001.43
2018-11-01T01:36:39.937Z,1001.45
2018-11-01T01:37:39.962Z,1001.50
2018-11-01T01:38:39.972Z,1001.55
2018-11-01T01:39:39.999Z,1001.62
2018-11-01T01:40:40.016Z,1001.64
2018-11-01T01:41:40.033Z,1001.68
2018-11-01T01:42:40.047Z,1001.69
2018-11-01T01:43:40.061Z,1001.71
2018-11-01T01:44:40.077Z,1001.69
2018-11-01T01:45:40.103Z,1001.72
2018-11-01T01:46:40.120Z,1001.73
2018-11-01T01:47:40.131Z,1001.75
2018-11-01T01:48:40.148Z,1001.76
2018-11-01T01:49:40.168Z,1001.77
2018-11-01T01:50:40.193Z,1001.77
2018-11-01T01:51:40.196Z,1001.75
2018-11-01T01:52:40.211Z,1001.80
2018-11-01T01:53:40.225Z,1001.76
2018-11-01T01:54:40.234Z,1001.76
2018-11-01T01:55:40.259Z,1001.73
2018-11-01T01:56:40.272Z,1001.73
2018-11-01T01:57:40.293Z,1001.76
2018-11-01T01:58:40.307Z,1001.76
2018-11-01T01:59:40.328Z,1001.72
2018-11-01T02:00:40.345Z,1001.76
2018-11-01T02:01:40.356Z,1001.77
2018-11-01T02:02:40.372Z,1001.74
2018-11-01T02:03:40.392Z,1001.80
2018-11-01T02:04:40.433Z,1001.74
2018-11-01T02:05:40.433Z,1001.80
2018-11-01T02:06:40.447Z,1001.83
2018-11-01T02:07:40.463Z,1001.87
2018-11-01T02:08:40.474Z,1001.85
2018-11-01T02:09:40.488Z,1001.83
2018-11-01T02:10:40.508Z,1001.82
2018-11-01T02:11:40.547Z,1001.83
2018-11-01T02:12:40.543Z,1001.82
2018-11-01T02:13:40.567Z,1001.84
2018-11-01T02:14:40.570Z,1001.84
2018-11-01T02:15:40.589Z,1001.89
2018-11-01T02:16:40.610Z,1001.93
2018-11-01T02:17:40.630Z,1001.91
2018-11-01T02:18:40.647Z,1001.92
2018-11-01T02:19:40.660Z,1002.00
2018-11-01T02:20:40.679Z,1002.03
2018-11-01T02:21:40.694Z,1002.02
2018-11-01T02:22:40.753Z,1002.04
2018-11-01T02:23:40.726Z,1002.06
2018-11-01T02:24:40.740Z,1002.05
2018-11-01T02:25:40.760Z,1002.11
2018-11-01T02:26:40.776Z,1002.14
2018-11-01T02:27:40.797Z,1002.15
2018-11-01T02:28:40.821Z,1002.18
2018-11-01T02:29:40.835Z,1002.22
2018-11-01T02:30:40.849Z,1002.27
2018-11-01T02:31:40.860Z,1002.32
2018-11-01T02:32:40.879Z,1002.31
2018-11-01T02:33:40.891Z,1002.36
2018-11-01T02:34:40.910Z,1002.38
2018-11-01T02:35:40.924Z,1002.37
2018-11-01T02:36:40.942Z,1002.40
2018-11-01T02:37:40.992Z,1002.35
2018-11-01T02:38:41.051Z,1002.27
2018-11-01T02:39:40.995Z,1002.25
2018-11-01T02:40:41.006Z,1002.23
2018-11-01T02:41:41.016Z,1002.19
2018-11-01T02:42:41.038Z,1002.18
2018-11-01T02:43:41.049Z,1002.17
2018-11-01T02:44:41.073Z,1002.21
2018-11-01T02:45:41.088Z,1002.19
2018-11-01T02:46:41.102Z,1002.17
2018-11-01T02:47:41.132Z,1002.16
2018-11-01T02:48:41.152Z,1002.17
2018-11-01T02:49:41.152Z,1002.19
2018-11-01T02:50:41.178Z,1002.20
2018-11-01T02:51:41.187Z,1002.21
2018-11-01T02:52:41.214Z,1002.27
2018-11-01T02:53:41.220Z,1002.31
2018-11-01T02:54:41.241Z,1002.36
2018-11-01T02:55:41.252Z,1002.38
2018-11-01T02:56:41.273Z,1002.36
2018-11-01T02:57:41.323Z,1002.37
2018-11-01T02:58:41.303Z,1002.37
2018-11-01T02:59:41.453Z,1002.41
2018-11-01T03:00:41.336Z,1002.42
2018-11-01T03:01:41.391Z,1002.41
2018-11-01T03:02:41.368Z,1002.44
2018-11-01T03:03:41.450Z,1002.48
2018-11-01T03:04:41.403Z,1002.50
2018-11-01T03:05:41.416Z,1002.54
2018-11-01T03:06:41.444Z,1002.57
2018-11-01T03:07:41.454Z,1002.63
2018-11-01T03:08:41.475Z,1002.70
2018-11-01T03:09:41.529Z,1002.70
2018-11-01T03:10:41.499Z,1002.78
2018-11-01T03:11:41.515Z,1002.78
2018-11-01T03:12:41.526Z,1002.80
2018-11-01T03:13:41.552Z,1002.79
2018-11-01T03:14:41.575Z,1002.85
2018-11-01T03:15:41.610Z,1002.84
2018-11-01T03:16:41.606Z,1002.83
2018-11-01T03:17:41.614Z,1002.85
2018-11-01T03:18:41.628Z,1002.86
2018-11-01T03:19:41.646Z,1002.81
2018-11-01T03:20:41.660Z,1002.86
2018-11-01T03:21:41.762Z,1002.86
2018-11-01T03:22:41.706Z,1002.84
2018-11-01T03:23:41.707Z,1002.87
2018-11-01T03:24:41.723Z,1002.84
2018-11-01T03:25:41.743Z,1002.85
2018-11-01T03:26:41.855Z,1002.82
2018-11-01T03:27:41.804Z,1002.82
2018-11-01T03:28:41.791Z,1002.85
2018-11-01T03:29:41.808Z,1002.85
2018-11-01T03:30:41.827Z,1002.86
2018-11-01T03:31:41.852Z,1002.85
2018-11-01T03:32:41.858Z,1002.85
2018-11-01T03:33:41.959Z,1002.83
2018-11-01T03:34:41.894Z,1002.81
2018-11-01T03:35:41.938Z,1002.80
2018-11-01T03:36:41.926Z,1002.78
2018-11-01T03:37:41.945Z,1002.81
2018-11-01T03:38:41.962Z,1002.78
2018-11-01T03:39:41.974Z,1002.83
2018-11-01T03:40:41.994Z,1002.86
2018-11-01T03:41:42.007Z,1002.86
2018-11-01T03:42:42.019Z,1002.87
2018-11-01T03:43:42.035Z,1002.86
2018-11-01T03:44:42.061Z,1002.87
2018-11-01T03:45:42.213Z,1002.92
2018-11-01T03:46:42.092Z,1002.95
2018-11-01T03:47:42.107Z,1002.97
2018-11-01T03:48:42.121Z,1003.03
2018-11-01T03:49:42.145Z,1003.06
2018-11-01T03:50:42.150Z,1002.99
2018-11-01T03:51:42.211Z,1003.05
2018-11-01T03:52:42.197Z,1003.11
2018-11-01T03:53:42.279Z,1003.18
2018-11-01T03:54:42.219Z,1003.19
2018-11-01T03:55:42.240Z,1003.23
2018-11-01T03:56:42.264Z,1003.21
2018-11-01T03:57:42.270Z,1003.21
2018-11-01T03:58:42.295Z,1003.23
2018-11-01T03:59:42.306Z,1003.26
2018-11-01T04:00:42.315Z,1003.22
2018-11-01T04:01:42.334Z,1003.28
2018-11-01T04:02:42.349Z,1003.23
2018-11-01T04:03:49.648Z,1003.22
2018-11-01T04:04:42.384Z,1003.21
2018-11-01T04:05:42.405Z,1003.17
2018-11-01T04:06:42.421Z,1003.16
2018-11-01T04:07:42.438Z,1003.12
2018-11-01T04:08:42.503Z,1003.13
2018-11-01T04:09:42.469Z,1003.18
2018-11-01T04:10:42.486Z,1003.24
2018-11-01T04:11:42.498Z,1003.27
2018-11-01T04:12:42.516Z,1003.29
2018-11-01T04:13:42.724Z,1003.31
2018-11-01T04:14:42.544Z,1003.35
2018-11-01T04:15:42.565Z,1003.42
2018-11-01T04:16:42.628Z,1003.46
2018-11-01T04:17:42.599Z,1003.53
2018-11-01T04:18:42.614Z,1003.56
2018-11-01T04:19:42.628Z,1003.60
2018-11-01T04:20:42.648Z,1003.59
2018-11-01T04:21:42.659Z,1003.56
2018-11-01T04:22:42.686Z,1003.48
2018-11-01T04:23:42.698Z,1003.54
2018-11-01T04:24:42.708Z,1003.53
2018-11-01T04:25:42.808Z,1003.56
2018-11-01T04:26:42.751Z,1003.56
2018-11-01T04:27:42.788Z,1003.55
2018-11-01T04:28:42.833Z,1003.47
2018-11-01T04:29:42.792Z,1003.47
2018-11-01T04:30:42.810Z,1003.52
2018-11-01T04:31:42.824Z,1003.54
2018-11-01T04:32:42.841Z,1003.60
2018-11-01T04:33:43.044Z,1003.64
2018-11-01T04:34:42.872Z,1003.62
2018-11-01T04:35:42.895Z,1003.75
2018-11-01T04:36:42.903Z,1003.81
2018-11-01T04:37:42.924Z,1003.87
2018-11-01T04:38:43.012Z,1003.88
2018-11-01T04:39:42.958Z,1003.94
2018-11-01T04:40:43.086Z,1003.98
2018-11-01T04:41:42.987Z,1004.02
2018-11-01T04:42:43.013Z,1004.06
2018-11-01T04:43:43.030Z,1004.09
2018-11-01T04:44:43.039Z,1004.14
2018-11-01T04:45:43.052Z,1004.11
2018-11-01T04:46:43.073Z,1004.09
2018-11-01T04:47:43.212Z,1004.09
2018-11-01T04:48:43.100Z,1004.08
2018-11-01T04:49:43.169Z,1004.07
2018-11-01T04:50:43.161Z,1004.05
2018-11-01T04:51:43.144Z,1004.05
2018-11-01T04:52:43.170Z,1004.03
2018-11-01T04:53:43.180Z,1004.04
2018-11-01T04:54:43.195Z,1004.02
2018-11-01T04:55:43.226Z,1004.04
2018-11-01T04:56:43.289Z,1004.07
2018-11-01T04:57:43.246Z,1004.11
2018-11-01T04:58:43.263Z,1004.20
2018-11-01T04:59:43.285Z,1004.21
2018-11-01T05:00:43.294Z,1004.23
2018-11-01T05:01:43.322Z,1004.29
2018-11-01T05:02:43.355Z,1004.35
2018-11-01T05:03:43.356Z,1004.41
2018-11-01T05:04:43.373Z,1004.44
2018-11-01T05:05:43.375Z,1004.45
2018-11-01T05:06:43.475Z,1004.49
2018-11-01T05:07:43.416Z,1004.49
2018-11-01T05:08:43.461Z,1004.46
2018-11-01T05:09:43.445Z,1004.47
2018-11-01T05:10:43.458Z,1004.49
2018-11-01T05:11:43.488Z,1004.46
2018-11-01T05:12:43.534Z,1004.50
2018-11-01T05:13:43.508Z,1004.56
2018-11-01T05:14:43.608Z,1004.58
2018-11-01T05:15:43.548Z,1004.63
2018-11-01T05:16:43.578Z,1004.65
2018-11-01T05:17:43.573Z,1004.67
2018-11-01T05:18:43.586Z,1004.67
2018-11-01T05:19:43.599Z,1004.69
2018-11-01T05:20:43.630Z,1004.66
2018-11-01T05:21:43.638Z,1004.68
2018-11-01T05:22:43.658Z,1004.65
2018-11-01T05:23:43.678Z,1004.68
2018-11-01T05:24:43.725Z,1004.73
2018-11-01T05:25:43.759Z,1004.84
2018-11-01T05:26:43.773Z,1004.94
2018-11-01T05:27:43.737Z,1005.02
2018-11-01T05:28:43.747Z,1005.10
2018-11-01T05:29:43.767Z,1005.07
2018-11-01T05:30:43.789Z,1005.07
2018-11-01T05:31:43.802Z,1005.19
2018-11-01T05:32:43.847Z,1005.16
2018-11-01T05:33:43.830Z,1005.17
2018-11-01T05:34:43.839Z,1005.16
2018-11-01T05:35:43.865Z,1005.14
2018-11-01T05:36:43.879Z,1005.13
2018-11-01T05:37:43.911Z,1005.12
2018-11-01T05:38:43.907Z,1005.19
2018-11-01T05:39:43.927Z,1005.21
2018-11-01T05:40:43.936Z,1005.22
2018-11-01T05:41:43.957Z,1005.27
2018-11-01T05:42:43.971Z,1005.27
2018-11-01T05:43:43.988Z,1005.24
2018-11-01T05:44:44.000Z,1005.22
2018-11-01T05:45:44.015Z,1005.22
2018-11-01T05:46:44.035Z,1005.23
2018-11-01T05:47:44.057Z,1005.16
2018-11-01T05:48:44.069Z,1005.13
2018-11-01T05:49:44.079Z,1005.15
2018-11-01T05:50:44.187Z,1005.20
2018-11-01T05:51:44.119Z,1005.18
2018-11-01T05:52:44.138Z,1005.19
2018-11-01T05:53:44.147Z,1005.27
2018-11-01T05:54:44.165Z,1005.25
2018-11-01T05:55:44.181Z,1005.27
2018-11-01T05:56:44.197Z,1005.26
2018-11-01T05:57:44.211Z,1005.27
2018-11-01T05:58:44.221Z,1005.22
2018-11-01T05:59:44.270Z,1005.19
2018-11-01T06:00:44.266Z,1005.19
2018-11-01T06:01:44.275Z,1005.17
2018-11-01T06:02:44.293Z,1005.19
2018-11-01T06:03:44.308Z,1005.20
2018-11-01T06:04:44.336Z,1005.22
2018-11-01T06:05:44.466Z,1005.27
2018-11-01T06:06:44.357Z,1005.36
2018-11-01T06:07:44.374Z,1005.32
2018-11-01T06:08:44.409Z,1005.38
2018-11-01T06:09:44.415Z,1005.38
2018-11-01T06:10:44.424Z,1005.46
2018-11-01T06:11:44.434Z,1005.48
2018-11-01T06:12:44.451Z,1005.51
2018-11-01T06:13:44.477Z,1005.52
2018-11-01T06:14:44.486Z,1005.52
2018-11-01T06:15:44.505Z,1005.58
2018-11-01T06:16:44.518Z,1005.58
2018-11-01T06:17:44.537Z,1005.56
2018-11-01T06:18:44.549Z,1005.60
2018-11-01T06:19:44.571Z,1005.65
2018-11-01T06:20:44.814Z,1005.71
2018-11-01T06:21:44.596Z,1005.73
2018-11-01T06:22:44.612Z,1005.77
2018-11-01T06:23:44.666Z,1005.84
2018-11-01T06:24:44.650Z,1005.82
2018-11-01T06:25:44.666Z,1005.85
2018-11-01T06:26:44.680Z,1005.86
2018-11-01T06:27:44.695Z,1005.85
2018-11-01T06:28:44.710Z,1005.85
2018-11-01T06:29:44.725Z,1005.86
2018-11-01T06:30:44.744Z,1005.87
2018-11-01T06:31:44.759Z,1005.91
2018-11-01T06:32:44.774Z,1005.93
2018-11-01T06:33:44.794Z,1005.98
2018-11-01T06:34:44.802Z,1005.99
2018-11-01T06:35:44.822Z,1006.04
2018-11-01T06:36:44.846Z,1006.06
2018-11-01T06:37:44.853Z,1006.04
2018-11-01T06:38:44.872Z,1006.06
2018-11-01T06:39:44.911Z,1006.06
2018-11-01T06:40:44.901Z,1006.04
2018-11-01T06:41:44.917Z,1006.02
2018-11-01T06:42:44.944Z,1005.99
2018-11-01T06:43:44.961Z,1006.00
2018-11-01T06:44:45.048Z,1006.05
2018-11-01T06:45:44.986Z,1006.06
2018-11-01T06:46:44.997Z,1006.04
2018-11-01T06:47:45.024Z,1005.99
2018-11-01T06:48:45.039Z,1005.92
2018-11-01T06:49:45.055Z,1005.88
2018-11-01T06:50:45.067Z,1005.83
2018-11-01T06:51:45.089Z,1005.83
2018-11-01T06:52:45.096Z,1005.82
2018-11-01T06:53:45.113Z,1005.77
2018-11-01T06:54:45.131Z,1005.81
2018-11-01T06:55:45.144Z,1005.80
2018-11-01T06:56:45.164Z,1005.80
2018-11-01T06:57:45.193Z,1005.81
2018-11-01T06:58:45.309Z,1005.83
2018-11-01T06:59:45.210Z,1005.89
2018-11-01T07:00:45.231Z,1005.87
2018-11-01T07:01:45.247Z,1005.94
2018-11-01T07:02:45.267Z,1005.93
2018-11-01T07:03:45.280Z,1005.92
2018-11-01T07:04:45.299Z,1005.96
2018-11-01T07:05:45.460Z,1005.98
2018-11-01T07:06:45.318Z,1006.03
2018-11-01T07:07:45.378Z,1006.03
2018-11-01T07:08:45.357Z,1006.03
2018-11-01T07:09:45.372Z,1006.06
2018-11-01T07:10:45.389Z,1006.05
2018-11-01T07:11:45.402Z,1006.10
2018-11-01T07:12:45.420Z,1006.13
2018-11-01T07:13:45.478Z,1006.13
2018-11-01T07:14:45.459Z,1006.18
2018-11-01T07:15:45.478Z,1006.20
2018-11-01T07:16:45.479Z,1006.22
2018-11-01T07:17:45.611Z,1006.26
2018-11-01T07:18:45.510Z,1006.26
2018-11-01T07:19:45.572Z,1006.26
2018-11-01T07:20:45.553Z,1006.24
2018-11-01T07:21:45.563Z,1006.25
2018-11-01T07:22:45.581Z,1006.24
2018-11-01T07:23:45.594Z,1006.25
2018-11-01T07:24:45.617Z,1006.22
2018-11-01T07:25:45.732Z,1006.24
2018-11-01T07:26:45.642Z,1006.27
2018-11-01T07:27:45.664Z,1006.23
2018-11-01T07:28:45.679Z,1006.29
2018-11-01T07:29:45.707Z,1006.36
2018-11-01T07:30:45.710Z,1006.31
2018-11-01T07:31:45.819Z,1006.28
2018-11-01T07:32:45.906Z,1006.32
2018-11-01T07:33:45.764Z,1006.33
2018-11-01T07:34:45.775Z,1006.33
2018-11-01T07:35:45.798Z,1006.36
2018-11-01T07:36:45.817Z,1006.39
2018-11-01T07:37:45.828Z,1006.44
2018-11-01T07:38:45.847Z,1006.48
2018-11-01T07:39:45.907Z,1006.50
2018-11-01T07:40:45.875Z,1006.45
2018-11-01T07:41:45.902Z,1006.44
2018-11-01T07:42:45.910Z,1006.48
2018-11-01T07:43:46.011Z,1006.47
2018-11-01T07:44:45.957Z,1006.47
2018-11-01T07:45:45.969Z,1006.50
2018-11-01T07:46:45.984Z,1006.56
2018-11-01T07:47:46.004Z,1006.57
2018-11-01T07:48:46.095Z,1006.54
2018-11-01T07:49:46.101Z,1006.59
2018-11-01T07:50:46.050Z,1006.59
2018-11-01T07:51:46.065Z,1006.66
2018-11-01T07:52:46.127Z,1006.74
2018-11-01T07:53:46.106Z,1006.79
2018-11-01T07:54:46.128Z,1006.82
2018-11-01T07:55:46.142Z,1006.75
2018-11-01T07:56:46.165Z,1006.72
2018-11-01T07:57:46.178Z,1006.82
2018-11-01T07:58:46.204Z,1006.88
2018-11-01T07:59:46.213Z,1006.89
2018-11-01T08:00:46.244Z,1006.96
2018-11-01T08:01:46.260Z,1006.97
2018-11-01T08:02:46.284Z,1007.07
2018-11-01T08:03:46.300Z,1007.10
2018-11-01T08:04:46.316Z,1007.12
2018-11-01T08:05:46.404Z,1007.14
2018-11-01T08:06:46.359Z,1007.15
2018-11-01T08:07:46.467Z,1007.21
2018-11-01T08:08:46.399Z,1007.26
2018-11-01T08:09:46.415Z,1007.27
2018-11-01T08:10:46.433Z,1007.32
2018-11-01T08:11:46.481Z,1007.41
2018-11-01T08:12:46.479Z,1007.43
2018-11-01T08:13:46.560Z,1007.48
2018-11-01T08:14:46.515Z,1007.51
2018-11-01T08:15:46.535Z,1007.57
2018-11-01T08:16:46.553Z,1007.57
2018-11-01T08:17:46.580Z,1007.53
2018-11-01T08:18:46.601Z,1007.56
2018-11-01T08:19:46.753Z,1007.55
2018-11-01T08:20:46.730Z,1007.60
2018-11-01T08:21:46.667Z,1007.64
2018-11-01T08:22:46.681Z,1007.63
2018-11-01T08:23:46.703Z,1007.65
2018-11-01T08:24:46.724Z,1007.74
2018-11-01T08:25:46.801Z,1007.76
2018-11-01T08:26:46.767Z,1007.71
2018-11-01T08:27:46.900Z,1007.69
2018-11-01T08:28:46.818Z,1007.71
2018-11-01T08:29:46.832Z,1007.75
2018-11-01T08:30:46.860Z,1007.73
2018-11-01T08:31:46.879Z,1007.75
2018-11-01T08:32:46.899Z,1007.74
2018-11-01T08:33:46.920Z,1007.67
2018-11-01T08:34:46.933Z,1007.70
2018-11-01T08:35:46.970Z,1007.70
2018-11-01T08:36:46.976Z,1007.71
2018-11-01T08:37:47.025Z,1007.73
2018-11-01T08:38:47.023Z,1007.77
2018-11-01T08:39:47.047Z,1007.82
2018-11-01T08:40:47.071Z,1007.85
2018-11-01T08:41:47.089Z,1007.89
2018-11-01T08:42:47.146Z,1007.92
2018-11-01T08:43:47.132Z,1007.88
2018-11-01T08:44:47.171Z,1007.87
2018-11-01T08:45:47.175Z,1007.88
2018-11-01T08:46:47.194Z,1007.85
2018-11-01T08:47:47.212Z,1007.85
2018-11-01T08:48:47.240Z,1007.85
2018-11-01T08:49:47.259Z,1007.87
2018-11-01T08:50:47.282Z,1007.85
2018-11-01T08:51:47.311Z,1007.85
2018-11-01T08:52:47.326Z,1007.82
2018-11-01T08:53:47.350Z,1007.87
2018-11-01T08:54:47.375Z,1007.90
2018-11-01T08:55:47.395Z,1007.95
2018-11-01T08:56:47.409Z,1007.99
2018-11-01T08:57:47.433Z,1008.02
2018-11-01T08:58:47.456Z,1008.03
2018-11-01T08:59:47.468Z,1008.05
2018-11-01T09:00:47.497Z,1008.07
2018-11-01T09:01:47.526Z,1008.04
2018-11-01T09:02:47.550Z,1008.05
2018-11-01T09:03:47.567Z,1008.06
2018-11-01T09:04:47.583Z,1008.11
2018-11-01T09:05:47.613Z,1008.12
2018-11-01T09:06:47.639Z,1008.14
2018-11-01T09:07:47.745Z,1008.16
2018-11-01T09:08:47.670Z,1008.16
2018-11-01T09:09:47.698Z,1008.20
2018-11-01T09:10:47.732Z,1008.15
2018-11-01T09:11:47.736Z,1008.20
2018-11-01T09:12:47.868Z,1008.22
2018-11-01T09:13:47.781Z,1008.24
2018-11-01T09:14:47.813Z,1008.29
2018-11-01T09:15:47.836Z,1008.30
2018-11-01T09:16:47.854Z,1008.30
2018-11-01T09:17:47.870Z,1008.28
2018-11-01T09:18:47.884Z,1008.32
2018-11-01T09:19:47.914Z,1008.31
2018-11-01T09:20:47.928Z,1008.33
2018-11-01T09:21:47.952Z,1008.38
2018-11-01T09:22:47.971Z,1008.40
2018-11-01T09:23:48.012Z,1008.34
2018-11-01T09:24:48.012Z,1008.35
2018-11-01T09:25:48.038Z,1008.36
2018-11-01T09:26:48.126Z,1008.35
2018-11-01T09:27:48.082Z,1008.35
2018-11-01T09:28:48.096Z,1008.35
2018-11-01T09:29:48.182Z,1008.34
2018-11-01T09:30:48.146Z,1008.32
2018-11-01T09:31:48.160Z,1008.33
2018-11-01T09:32:48.253Z,1008.33
2018-11-01T09:33:48.206Z,1008.40
2018-11-01T09:34:48.226Z,1008.44
2018-11-01T09:35:48.304Z,1008.53
2018-11-01T09:36:48.274Z,1008.63
2018-11-01T09:37:48.292Z,1008.57
2018-11-01T09:38:48.308Z,1008.63
2018-11-01T09:39:48.334Z,1008.64
2018-11-01T09:40:48.352Z,1008.67
2018-11-01T09:41:48.377Z,1008.66
2018-11-01T09:42:48.397Z,1008.67
2018-11-01T09:43:48.432Z,1008.65
2018-11-01T09:44:48.435Z,1008.66
2018-11-01T09:45:48.481Z,1008.67
2018-11-01T09:46:48.989Z,1008.66
2018-11-01T09:47:48.776Z,1008.67
2018-11-01T09:48:48.532Z,1008.67
2018-11-01T09:49:48.544Z,1008.67
2018-11-01T09:50:48.566Z,1008.69
2018-11-01T09:51:48.587Z,1008.73
2018-11-01T09:52:48.617Z,1008.75
2018-11-01T09:53:48.677Z,1008.77
2018-11-01T09:54:48.653Z,1008.76
2018-11-01T09:55:48.804Z,1008.78
2018-11-01T09:56:48.696Z,1008.79
2018-11-01T09:57:48.718Z,1008.81
2018-11-01T09:58:48.738Z,1008.81
2018-11-01T09:59:48.767Z,1008.80
2018-11-01T10:00:48.799Z,1008.79
2018-11-01T10:01:48.799Z,1008.80
2018-11-01T10:02:48.821Z,1008.78
2018-11-01T10:03:48.850Z,1008.79
2018-11-01T10:04:48.855Z,1008.84
2018-11-01T10:05:48.914Z,1008.87
2018-11-01T10:06:48.947Z,1008.91
2018-11-01T10:07:48.926Z,1008.95
2018-11-01T10:08:48.953Z,1008.98
2018-11-01T10:09:48.970Z,1008.98
2018-11-01T10:10:48.983Z,1008.99
2018-11-01T10:11:49.029Z,1009.02
2018-11-01T10:12:49.031Z,1009.06
2018-11-01T10:13:49.059Z,1009.04
2018-11-01T10:14:49.073Z,1009.09
2018-11-01T10:15:49.327Z,1009.08
2018-11-01T10:16:49.373Z,1009.14
2018-11-01T10:17:49.613Z,1009.16
2018-11-01T10:18:49.155Z,1009.16
2018-11-01T10:19:49.180Z,1009.15
2018-11-01T10:20:49.202Z,1009.20
2018-11-01T10:21:49.360Z,1009.19
2018-11-01T10:22:49.482Z,1009.15
2018-11-01T10:23:49.279Z,1009.14
2018-11-01T10:24:49.294Z,1009.12
2018-11-01T10:25:49.417Z,1009.14
2018-11-01T10:26:49.323Z,1009.12
2018-11-01T10:27:49.457Z,1009.10
2018-11-01T10:28:49.376Z,1009.12
2018-11-01T10:29:49.463Z,1009.09
2018-11-01T10:30:49.422Z,1009.18
2018-11-01T10:31:49.439Z,1009.19
2018-11-01T10:32:49.461Z,1009.17
2018-11-01T10:33:49.537Z,1009.16
2018-11-01T10:34:49.491Z,1009.15
2018-11-01T10:35:49.515Z,1009.15
2018-11-01T10:36:49.540Z,1009.18
2018-11-01T10:37:49.565Z,1009.21
2018-11-01T10:38:49.586Z,1009.25
2018-11-01T10:39:49.601Z,1009.21
2018-11-01T10:40:49.746Z,1009.18
2018-11-01T10:41:49.643Z,1009.24
2018-11-01T10:42:49.658Z,1009.18
2018-11-01T10:43:49.686Z,1009.21
2018-11-01T10:44:49.699Z,1009.24
2018-11-01T10:45:49.719Z,1009.26
2018-11-01T10:46:49.741Z,1009.20
2018-11-01T10:47:49.850Z,1009.18
2018-11-01T10:48:49.782Z,1009.19
2018-11-01T10:49:49.812Z,1009.23
2018-11-01T10:50:49.822Z,1009.18
2018-11-01T10:51:49.844Z,1009.18
2018-11-01T10:52:49.885Z,1009.24
2018-11-01T10:53:50.000Z,1009.27
2018-11-01T10:54:49.908Z,1009.26
2018-11-01T10:55:49.924Z,1009.22
2018-11-01T10:56:49.946Z,1009.21
2018-11-01T10:57:49.970Z,1009.26
2018-11-01T10:58:50.022Z,1009.21
2018-11-01T10:59:50.014Z,1009.20
2018-11-01T11:00:50.206Z,1009.19
2018-11-01T11:01:50.061Z,1009.16
2018-11-01T11:02:50.082Z,1009.20
2018-11-01T11:03:50.102Z,1009.23
2018-11-01T11:04:50.210Z,1009.23
2018-11-01T11:05:50.137Z,1009.15
2018-11-01T11:06:50.160Z,1009.14
2018-11-01T11:07:50.177Z,1009.14
2018-11-01T11:08:50.199Z,1009.12
2018-11-01T11:09:50.218Z,1009.14
2018-11-01T11:10:50.287Z,1009.14
2018-11-01T11:11:50.263Z,1009.14
2018-11-01T11:12:50.285Z,1009.17
2018-11-01T11:13:50.308Z,1009.16
2018-11-01T11:14:50.323Z,1009.15
2018-11-01T11:15:50.346Z,1009.17
2018-11-01T11:16:50.366Z,1009.19
2018-11-01T11:17:50.386Z,1009.20
2018-11-01T11:18:50.413Z,1009.22
2018-11-01T11:19:50.548Z,1009.27
2018-11-01T11:20:50.848Z,1009.26
2018-11-01T11:21:50.476Z,1009.25
2018-11-01T11:22:50.494Z,1009.21
2018-11-01T11:23:50.516Z,1009.28
2018-11-01T11:24:50.543Z,1009.25
2018-11-01T11:25:50.564Z,1009.22
2018-11-01T11:26:50.584Z,1009.15
2018-11-01T11:27:50.604Z,1009.12
2018-11-01T11:28:50.621Z,1009.18
2018-11-01T11:29:50.658Z,1009.26
2018-11-01T11:30:50.677Z,1009.27
2018-11-01T11:31:50.682Z,1009.30
2018-11-01T11:32:50.712Z,1009.33
2018-11-01T11:33:50.731Z,1009.30
2018-11-01T11:34:50.744Z,1009.28
2018-11-01T11:35:50.915Z,1009.28
2018-11-01T11:36:50.788Z,1009.37
2018-11-01T11:37:50.815Z,1009.42
2018-11-01T11:38:50.834Z,1009.40
2018-11-01T11:39:50.994Z,1009.44
2018-11-01T11:40:50.879Z,1009.41
2018-11-01T11:41:50.897Z,1009.42
2018-11-01T11:42:50.915Z,1009.37
2018-11-01T11:43:50.944Z,1009.39
2018-11-01T11:44:50.963Z,1009.35
2018-11-01T11:45:50.991Z,1009.31
2018-11-01T11:46:50.997Z,1009.29
2018-11-01T11:47:51.027Z,1009.31
2018-11-01T11:48:51.051Z,1009.37
2018-11-01T11:49:51.065Z,1009.32
2018-11-01T11:50:51.085Z,1009.40
2018-11-01T11:51:51.110Z,1009.42
2018-11-01T11:52:51.122Z,1009.40
2018-11-01T11:53:51.145Z,1009.33
2018-11-01T11:54:51.169Z,1009.31
2018-11-01T11:55:51.202Z,1009.24
2018-11-01T11:56:51.241Z,1009.22
2018-11-01T11:57:51.239Z,1009.29
2018-11-01T11:58:51.253Z,1009.36
2018-11-01T11:59:51.284Z,1009.30
2018-11-01T12:00:51.297Z,1009.34
2018-11-01T12:01:51.320Z,1009.28
2018-11-01T12:02:51.336Z,1009.27
2018-11-01T12:03:51.353Z,1009.37
2018-11-01T12:04:51.380Z,1009.45
2018-11-01T12:05:51.509Z,1009.43